createdAt,value
2022-08-30T00:01:14.310Z,98167.44
2022-08-30T00:03:48.213Z,98164.53
2022-08-30T00:06:18.208Z,98173.56
2022-08-30T00:08:46.720Z,98179.78
2022-08-30T00:11:16.311Z,98174.81
2022-08-30T00:13:45.605Z,98176.13
2022-08-30T00:16:13.727Z,98173.84
2022-08-30T00:18:41.264Z,98166.66
2022-08-30T00:21:09.235Z,98170.44
2022-08-30T00:23:37.298Z,98172.13
2022-08-30T00:26:04.413Z,98174.47
2022-08-30T00:28:34.257Z,98166.09
2022-08-30T00:31:02.262Z,98178.97
2022-08-30T00:33:29.876Z,98176.91
2022-08-30T00:35:57.674Z,98176.53
2022-08-30T00:38:24.857Z,98174.91
2022-08-30T00:40:52.989Z,98173.47
2022-08-30T00:43:25.517Z,98163.38
2022-08-30T00:45:55.857Z,98167.81
2022-08-30T00:48:23.551Z,98171.19
2022-08-30T00:50:58.403Z,98180.06
2022-08-30T00:53:31.267Z,98175.41
2022-08-30T00:56:00.430Z,98182.78
2022-08-30T00:58:37.416Z,98176.94
2022-08-30T01:01:07.079Z,98176.72
2022-08-30T01:03:35.779Z,98175.59
2022-08-30T01:06:05.004Z,98179.25
2022-08-30T01:08:32.303Z,98178.06
2022-08-30T01:11:00.051Z,98179.16
2022-08-30T01:13:29.511Z,98171.91
2022-08-30T01:15:56.900Z,98176.38
2022-08-30T01:18:25.446Z,98183.19
2022-08-30T01:21:08.584Z,98181.47
2022-08-30T01:23:39.724Z,98180.75
2022-08-30T01:26:08.093Z,98174.63
2022-08-30T01:28:35.703Z,98169.91
2022-08-30T01:31:03.398Z,98165.78
2022-08-30T01:33:31.068Z,98168.78
2022-08-30T01:36:02.521Z,98175.22
2022-08-30T01:38:57.230Z,98176.25
2022-08-30T01:41:29.807Z,98182.00
2022-08-30T01:44:00.490Z,98175.69
2022-08-30T01:46:36.817Z,98170.78
2022-08-30T01:49:08.343Z,98167.88
2022-08-30T01:51:35.623Z,98167.75
2022-08-30T01:54:02.769Z,98157.78
2022-08-30T01:56:30.283Z,98175.22
2022-08-30T01:59:02.638Z,98166.91
2022-08-30T02:01:32.595Z,98169.09
2022-08-30T02:04:00.437Z,98168.22
2022-08-30T02:06:28.136Z,98160.44
2022-08-30T02:08:55.401Z,98165.69
2022-08-30T02:11:22.611Z,98171.13
2022-08-30T02:13:51.123Z,98171.91
2022-08-30T02:16:23.125Z,98180.94
2022-08-30T02:18:52.661Z,98182.72
2022-08-30T02:21:20.177Z,98170.94
2022-08-30T02:23:47.630Z,98181.47
2022-08-30T02:26:15.383Z,98181.22
2022-08-30T02:28:50.125Z,98183.66
2022-08-30T02:31:20.818Z,98185.56
2022-08-30T02:33:50.477Z,98182.16
2022-08-30T02:36:18.095Z,98178.38
2022-08-30T02:38:45.375Z,98179.44
2022-08-30T02:41:12.426Z,98171.97
2022-08-30T02:43:39.568Z,98173.78
2022-08-30T02:46:06.897Z,98176.88
2022-08-30T02:48:34.320Z,98172.75
2022-08-30T02:51:11.535Z,98172.19
2022-08-30T02:53:40.254Z,98173.78
2022-08-30T02:56:08.514Z,98176.78
2022-08-30T02:58:36.595Z,98180.16
2022-08-30T03:01:05.178Z,98170.72
2022-08-30T03:03:32.448Z,98170.00
2022-08-30T03:05:59.511Z,98166.22
2022-08-30T03:08:26.557Z,98159.81
2022-08-30T03:10:53.493Z,98162.66
2022-08-30T03:13:21.303Z,98171.84
2022-08-30T03:15:50.460Z,98167.94
2022-08-30T03:18:19.456Z,98169.81
2022-08-30T03:20:53.968Z,98160.09
2022-08-30T03:23:22.783Z,98179.50
2022-08-30T03:25:49.842Z,98173.69
2022-08-30T03:28:17.231Z,98181.22
2022-08-30T03:30:44.237Z,98178.66
2022-08-30T03:33:11.529Z,98180.75
2022-08-30T03:35:38.742Z,98180.16
2022-08-30T03:38:06.498Z,98181.69
2022-08-30T03:40:33.731Z,98179.88
2022-08-30T03:43:01.169Z,98187.03
2022-08-30T03:45:28.423Z,98189.41
2022-08-30T03:47:55.589Z,98192.78
2022-08-30T03:50:22.952Z,98189.75
2022-08-30T03:52:50.366Z,98188.22
2022-08-30T03:55:17.481Z,98189.59
2022-08-30T03:57:44.448Z,98192.13
2022-08-30T04:00:14.126Z,98192.13
2022-08-30T04:02:42.059Z,98199.28
2022-08-30T04:05:12.770Z,98202.47
2022-08-30T04:07:41.806Z,98198.25
2022-08-30T04:10:10.122Z,98200.03
2022-08-30T04:12:38.565Z,98201.94
2022-08-30T04:15:06.373Z,98203.25
2022-08-30T04:17:33.409Z,98206.28
2022-08-30T04:20:00.466Z,98211.75
2022-08-30T04:22:27.528Z,98207.97
2022-08-30T04:24:54.616Z,98205.72
2022-08-30T04:27:21.563Z,98210.78
2022-08-30T04:29:49.212Z,98217.78
2022-08-30T04:32:17.264Z,98213.16
2022-08-30T04:34:44.354Z,98219.47
2022-08-30T04:37:11.406Z,98216.84
2022-08-30T04:39:38.899Z,98214.75
2022-08-30T04:42:07.045Z,98217.50
2022-08-30T04:44:34.089Z,98207.81
2022-08-30T04:47:01.216Z,98207.03
2022-08-30T04:49:28.223Z,98215.53
2022-08-30T04:51:55.903Z,98217.72
2022-08-30T04:54:22.998Z,98213.38
2022-08-30T04:56:50.010Z,98217.78
2022-08-30T04:59:17.579Z,98216.94
2022-08-30T05:01:46.111Z,98216.94
2022-08-30T05:04:15.077Z,98218.47
2022-08-30T05:06:42.885Z,98224.59
2022-08-30T05:09:10.089Z,98225.94
2022-08-30T05:11:38.967Z,98233.94
2022-08-30T05:14:06.211Z,98224.91
2022-08-30T05:16:33.353Z,98229.91
2022-08-30T05:19:00.744Z,98236.88
2022-08-30T05:21:28.992Z,98234.13
2022-08-30T05:23:58.710Z,98232.72
2022-08-30T05:26:32.647Z,98240.81
2022-08-30T05:28:59.934Z,98242.78
2022-08-30T05:31:33.471Z,98243.06
2022-08-30T05:34:01.766Z,98249.47
2022-08-30T05:36:34.719Z,98241.53
2022-08-30T05:39:01.780Z,98251.28
2022-08-30T05:41:33.344Z,98255.97
2022-08-30T05:44:02.765Z,98249.75
2022-08-30T05:49:07.692Z,98237.06
2022-08-30T05:51:35.979Z,98244.13
2022-08-30T05:54:12.620Z,98242.69
2022-08-30T05:56:40.441Z,98241.91
2022-08-30T05:59:08.474Z,98249.66
2022-08-30T06:01:38.230Z,98251.22
2022-08-30T06:04:07.046Z,98244.94
2022-08-30T06:06:35.779Z,98256.25
2022-08-30T06:09:06.089Z,98253.56
2022-08-30T06:11:33.942Z,98257.88
2022-08-30T06:14:01.481Z,98252.44
2022-08-30T06:16:29.832Z,98253.13
2022-08-30T06:18:58.767Z,98249.09
2022-08-30T06:21:31.800Z,98248.19
2022-08-30T06:23:59.342Z,98252.91
2022-08-30T06:26:27.991Z,98260.97
2022-08-30T06:28:56.004Z,98259.28
2022-08-30T06:31:25.152Z,98258.22
2022-08-30T06:33:52.586Z,98260.63
2022-08-30T06:36:23.285Z,98259.41
2022-08-30T06:38:52.401Z,98261.59
2022-08-30T06:41:22.617Z,98259.72
2022-08-30T06:43:50.358Z,98258.38
2022-08-30T06:46:20.713Z,98264.59
2022-08-30T06:48:48.727Z,98271.00
2022-08-30T06:51:20.446Z,98262.78
2022-08-30T06:53:49.088Z,98256.47
2022-08-30T06:56:17.362Z,98267.31
2022-08-30T06:58:45.198Z,98258.75
2022-08-30T07:01:16.285Z,98265.41
2022-08-30T07:03:43.681Z,98255.97
2022-08-30T07:06:11.449Z,98249.53
2022-08-30T07:08:38.796Z,98262.63
2022-08-30T07:11:07.622Z,98265.94
2022-08-30T07:13:36.394Z,98268.94
2022-08-30T07:16:13.574Z,98266.00
2022-08-30T07:18:56.830Z,98272.13
2022-08-30T07:21:37.538Z,98260.75
2022-08-30T07:24:06.940Z,98255.47
2022-08-30T07:26:47.457Z,98264.38
2022-08-30T07:29:15.201Z,98270.53
2022-08-30T07:31:42.770Z,98260.19
2022-08-30T07:34:10.290Z,98270.78
2022-08-30T07:36:39.259Z,98274.16
2022-08-30T07:39:07.309Z,98265.50
2022-08-30T07:41:38.914Z,98268.25
2022-08-30T07:44:09.559Z,98272.00
2022-08-30T07:46:39.004Z,98265.72
2022-08-30T07:49:11.351Z,98264.00
2022-08-30T07:51:40.208Z,98265.38
2022-08-30T07:54:07.616Z,98270.22
2022-08-30T07:56:35.307Z,98267.69
2022-08-30T07:59:02.377Z,98259.34
2022-08-30T08:01:29.502Z,98269.97
2022-08-30T08:03:56.914Z,98273.81
2022-08-30T08:06:24.547Z,98276.09
2022-08-30T08:08:52.219Z,98270.97
2022-08-30T08:11:24.843Z,98265.78
2022-08-30T08:13:53.897Z,98275.03
2022-08-30T08:16:23.918Z,98275.94
2022-08-30T08:18:52.008Z,98266.13
2022-08-30T08:21:19.500Z,98264.88
2022-08-30T08:23:47.133Z,98257.34
2022-08-30T08:26:14.517Z,98263.22
2022-08-30T08:28:41.690Z,98259.53
2022-08-30T08:31:16.397Z,98265.69
2022-08-30T08:33:44.169Z,98261.84
2022-08-30T08:36:11.289Z,98257.16
2022-08-30T08:38:38.335Z,98267.75
2022-08-30T08:41:24.294Z,98263.78
2022-08-30T08:43:51.706Z,98261.41
2022-08-30T08:46:29.154Z,98259.63
2022-08-30T08:49:01.670Z,98250.34
2022-08-30T08:51:51.751Z,98255.13
2022-08-30T08:54:44.711Z,98252.03
2022-08-30T08:57:15.888Z,98250.63
2022-08-30T08:59:45.122Z,98241.88
2022-08-30T09:02:27.526Z,98248.25
2022-08-30T09:04:59.747Z,98249.72
2022-08-30T09:07:31.221Z,98239.06
2022-08-30T09:10:00.752Z,98239.63
2022-08-30T09:12:28.496Z,98231.34
2022-08-30T09:15:19.021Z,98231.47
2022-08-30T09:17:56.530Z,98228.09
2022-08-30T09:20:26.633Z,98224.63
2022-08-30T09:22:53.971Z,98227.16
2022-08-30T09:25:26.536Z,98219.47
2022-08-30T09:27:56.306Z,98226.19
2022-08-30T09:30:27.258Z,98218.91
2022-08-30T09:33:04.443Z,98217.38
2022-08-30T09:35:43.943Z,98216.81
2022-08-30T09:38:13.159Z,98211.16
2022-08-30T09:40:48.962Z,98210.69
2022-08-30T09:43:18.824Z,98206.47
2022-08-30T09:45:50.032Z,98206.13
2022-08-30T09:48:23.181Z,98199.50
2022-08-30T09:51:06.345Z,98203.72
2022-08-30T09:53:36.207Z,98197.00
2022-08-30T09:56:10.187Z,98191.69
2022-08-30T09:58:57.640Z,98189.88
2022-08-30T10:01:30.761Z,98190.63
2022-08-30T10:04:07.595Z,98182.91
2022-08-30T10:06:44.525Z,98184.13
2022-08-30T10:09:27.739Z,98185.44
2022-08-30T10:12:11.150Z,98177.03
2022-08-30T10:14:51.622Z,98174.50
2022-08-30T10:17:54.107Z,98170.50
2022-08-30T10:20:31.841Z,98171.78
2022-08-30T10:23:14.642Z,98171.06
2022-08-30T10:25:50.644Z,98167.00
2022-08-30T10:28:29.398Z,98159.00
2022-08-30T10:31:05.401Z,98159.28
2022-08-30T10:33:45.415Z,98153.81
2022-08-30T10:36:15.062Z,98155.06
2022-08-30T10:38:48.753Z,98151.63
2022-08-30T10:41:35.230Z,98138.66
2022-08-30T10:44:25.108Z,98134.09
2022-08-30T10:47:18.552Z,98135.84
2022-08-30T10:49:57.605Z,98123.41
2022-08-30T10:52:35.615Z,98123.41
2022-08-30T10:55:08.893Z,98120.34
2022-08-30T10:57:37.661Z,98124.97
2022-08-30T11:00:14.520Z,98112.38
2022-08-30T11:03:26.063Z,98118.28
2022-08-30T11:05:59.242Z,98110.06
2022-08-30T11:08:42.077Z,98106.91
2022-08-30T11:11:35.999Z,98111.59
2022-08-30T11:14:12.004Z,98107.59
2022-08-30T11:16:43.314Z,98099.59
2022-08-30T11:19:22.630Z,98099.50
2022-08-30T11:21:50.958Z,98099.19
2022-08-30T11:24:21.948Z,98103.59
2022-08-30T11:26:48.990Z,98094.28
2022-08-30T11:29:35.858Z,98092.50
2022-08-30T11:32:17.383Z,98091.63
2022-08-30T11:34:47.298Z,98086.75
2022-08-30T11:37:37.376Z,98091.00
2022-08-30T11:40:22.800Z,98082.56
2022-08-30T11:42:52.231Z,98079.88
2022-08-30T11:45:24.868Z,98083.09
2022-08-30T11:48:40.402Z,98077.31
2022-08-30T11:55:03.469Z,98069.19
2022-08-30T11:57:51.616Z,98071.16
2022-08-30T12:00:39.442Z,98068.69
2022-08-30T12:03:33.273Z,98059.44
2022-08-30T12:06:05.691Z,98062.50
2022-08-30T12:08:36.183Z,98051.03
2022-08-30T12:11:09.285Z,98047.09
2022-08-30T12:13:37.683Z,98040.34
2022-08-30T12:16:09.503Z,98041.03
2022-08-30T12:18:50.197Z,98040.13
2022-08-30T12:21:21.478Z,98025.56
2022-08-30T12:24:22.407Z,98031.22
2022-08-30T12:26:52.570Z,98032.22
2022-08-30T12:29:23.207Z,98029.91
2022-08-30T12:31:55.376Z,98025.03
2022-08-30T12:34:34.310Z,98030.28
2022-08-30T12:37:08.886Z,98018.78
2022-08-30T12:39:46.640Z,98018.78
2022-08-30T12:42:26.947Z,98013.72
2022-08-30T12:44:58.064Z,98007.22
2022-08-30T12:47:38.256Z,98008.16
2022-08-30T12:50:06.854Z,97997.66
2022-08-30T12:52:42.354Z,97998.47
2022-08-30T12:55:19.690Z,98000.53
2022-08-30T12:58:00.962Z,97997.50
2022-08-30T13:00:34.098Z,97989.78
2022-08-30T13:03:28.464Z,97994.03
2022-08-30T13:05:57.687Z,97982.63
2022-08-30T13:08:42.864Z,97989.84
2022-08-30T13:11:24.963Z,97981.75
2022-08-30T13:14:18.574Z,97981.16
2022-08-30T13:16:47.027Z,97977.63
2022-08-30T13:19:33.686Z,97966.81
2022-08-30T13:22:02.005Z,97960.16
2022-08-30T13:24:29.190Z,97965.00
2022-08-30T13:27:02.334Z,97961.13
2022-08-30T13:29:30.116Z,97965.66
2022-08-30T13:31:57.802Z,97960.16
2022-08-30T13:34:25.125Z,97948.91
2022-08-30T13:36:56.114Z,97950.97
2022-08-30T13:39:23.295Z,97944.56
2022-08-30T13:41:51.585Z,97944.03
2022-08-30T13:44:18.859Z,97935.91
2022-08-30T13:46:55.271Z,97940.97
2022-08-30T13:49:43.769Z,97924.47
2022-08-30T13:52:22.937Z,97929.28
2022-08-30T13:54:52.154Z,97917.38
2022-08-30T14:00:15.270Z,97931.88
2022-08-30T14:02:46.669Z,97926.16
2022-08-30T14:05:47.108Z,97925.31
2022-08-30T14:08:05.709Z,97923.50
2022-08-30T14:10:37.739Z,97921.13
2022-08-30T14:13:12.897Z,97926.41
2022-08-30T14:15:42.000Z,97936.50
2022-08-30T14:18:09.378Z,97929.19
2022-08-30T14:20:38.411Z,97928.22
2022-08-30T14:23:07.681Z,97925.50
2022-08-30T14:25:40.242Z,97938.53
2022-08-30T14:28:09.544Z,97933.84
2022-08-30T14:30:38.978Z,97930.63
2022-08-30T14:33:06.585Z,97912.13
2022-08-30T14:35:33.803Z,97909.75
2022-08-30T14:38:00.999Z,97935.97
2022-08-30T14:40:28.231Z,97911.13
2022-08-30T14:42:55.434Z,97934.69
2022-08-30T14:45:22.614Z,98002.59
2022-08-30T14:47:50.473Z,98110.94
2022-08-30T14:50:17.636Z,60241.81
2022-08-30T14:53:43.402Z,60241.81
2022-08-30T14:56:25.714Z,60241.81
2022-08-30T14:58:54.598Z,60241.81
2022-08-30T15:01:22.772Z,60241.81
2022-08-30T15:03:51.305Z,60241.81
2022-08-30T15:06:18.843Z,60241.81
2022-08-30T15:08:48.445Z,60241.81
2022-08-30T15:11:18.719Z,60241.81
2022-08-30T15:13:46.344Z,60241.81
2022-08-30T15:16:17.722Z,60241.81
2022-08-30T15:18:48.323Z,60241.81
2022-08-30T15:21:21.979Z,60241.81
2022-08-30T15:23:49.799Z,60241.81
2022-08-30T15:26:20.049Z,60241.81
2022-08-30T15:28:47.499Z,60241.81
2022-08-30T15:31:14.779Z,60241.81
2022-08-30T15:33:42.099Z,60241.81
2022-08-30T15:36:12.435Z,60241.81
2022-08-30T15:38:41.173Z,60241.81
2022-08-30T15:41:12.563Z,60241.81
2022-08-30T15:43:43.651Z,60241.81
2022-08-30T15:46:22.935Z,60241.81
2022-08-30T15:48:52.323Z,60241.81
2022-08-30T15:51:19.559Z,60241.81
2022-08-30T15:53:46.959Z,60241.81
2022-08-30T15:56:16.487Z,60241.81
2022-08-30T15:58:44.417Z,60241.81
2022-08-30T16:01:13.484Z,60241.81
2022-08-30T16:03:41.833Z,60241.81
2022-08-30T16:06:22.063Z,60241.81
2022-08-30T16:08:49.875Z,60241.81
2022-08-30T16:11:19.936Z,60241.81
2022-08-30T16:13:50.563Z,60241.81
2022-08-30T16:16:20.950Z,60241.81
2022-08-30T16:18:53.935Z,60241.81
2022-08-30T16:21:25.138Z,60241.81
2022-08-30T16:24:43.883Z,60241.81
2022-08-30T16:27:13.967Z,60241.81
2022-08-30T16:29:40.993Z,60241.81
2022-08-30T16:32:08.241Z,60241.81
2022-08-30T16:34:35.802Z,60241.81
2022-08-30T16:37:04.266Z,60241.81
2022-08-30T16:39:32.473Z,60241.81
2022-08-30T16:42:03.125Z,60241.81
2022-08-30T16:44:30.470Z,60241.81
2022-08-30T16:46:57.660Z,60241.81
2022-08-30T16:49:25.528Z,60241.81
2022-08-30T16:51:53.624Z,60241.81
2022-08-30T16:54:22.063Z,60241.81
2022-08-30T16:56:49.464Z,60241.81
2022-08-30T16:59:16.888Z,60241.81
2022-08-30T17:01:45.047Z,60241.81
2022-08-30T17:04:13.927Z,60241.81
2022-08-30T17:06:47.279Z,60241.81
2022-08-30T17:09:15.126Z,60241.81
2022-08-30T17:11:42.870Z,60241.81
2022-08-30T17:14:10.356Z,60241.81
2022-08-30T17:16:38.131Z,60241.81
2022-08-30T17:19:07.337Z,60241.81
2022-08-30T17:21:35.095Z,60241.81
2022-08-30T17:24:03.547Z,60241.81
2022-08-30T17:26:33.054Z,60241.81
2022-08-30T17:29:00.569Z,60241.81
2022-08-30T17:31:31.487Z,60241.81
2022-08-30T17:34:03.712Z,60241.81
2022-08-30T17:36:36.642Z,60241.81
2022-08-30T17:39:10.638Z,60241.81
2022-08-30T17:41:49.942Z,60241.81
2022-08-30T17:44:20.535Z,60241.81
2022-08-30T17:46:47.839Z,60241.81
2022-08-30T17:49:15.243Z,60241.81
2022-08-30T17:51:43.185Z,60241.81
2022-08-30T17:54:12.933Z,60241.81
2022-08-30T17:56:41.536Z,60241.81
2022-08-30T17:59:11.534Z,60241.81
2022-08-30T18:01:42.228Z,60241.81
2022-08-30T18:04:09.951Z,60241.81
2022-08-30T18:06:37.222Z,60241.81
2022-08-30T18:09:08.961Z,60241.81
2022-08-30T18:11:39.897Z,60241.81
2022-08-30T18:14:10.880Z,60241.81
2022-08-30T18:16:39.285Z,60241.81
2022-08-30T18:19:20.542Z,60241.81
2022-08-30T18:21:47.702Z,60241.81
2022-08-30T18:24:16.723Z,60241.81
2022-08-30T18:26:43.940Z,60241.81
2022-08-30T18:29:11.644Z,60241.81
2022-08-30T18:31:39.186Z,60241.81
2022-08-30T18:34:12.171Z,60241.81
2022-08-30T18:36:42.075Z,60241.81
2022-08-30T18:39:11.174Z,60241.81
2022-08-30T18:41:43.183Z,60241.81
2022-08-30T18:44:27.140Z,60241.81
2022-08-30T18:46:57.084Z,60241.81
2022-08-30T18:49:26.514Z,60241.81
2022-08-30T18:51:54.156Z,60241.81
2022-08-30T18:54:21.263Z,60241.81
2022-08-30T18:56:49.184Z,60241.81
2022-08-30T18:59:16.454Z,60241.81
2022-08-30T19:01:44.283Z,60241.81
2022-08-30T19:04:22.460Z,60241.81
2022-08-30T19:06:57.682Z,60241.81
2022-08-30T19:09:26.640Z,60241.81
2022-08-30T19:11:54.438Z,60241.81
2022-08-30T19:14:21.927Z,60241.81
2022-08-30T19:16:49.539Z,60241.81
2022-08-30T19:19:16.845Z,60241.81
2022-08-30T19:21:44.365Z,60241.81
2022-08-30T19:24:11.916Z,60241.81
2022-08-30T19:26:40.720Z,60241.81
2022-08-30T19:29:08.147Z,60241.81
2022-08-30T19:31:35.494Z,60241.81
2022-08-30T19:34:02.784Z,60241.81
2022-08-30T19:36:31.270Z,60241.81
2022-08-30T19:38:58.520Z,60241.81
2022-08-30T19:41:27.467Z,60241.81
2022-08-30T19:43:54.786Z,60241.81
2022-08-30T19:46:22.103Z,60241.81
2022-08-30T19:48:49.167Z,60241.81
2022-08-30T19:51:17.268Z,60241.81
2022-08-30T19:53:44.319Z,60241.81
2022-08-30T19:56:11.783Z,60241.81
2022-08-30T19:58:39.823Z,60241.81
2022-08-30T20:01:12.255Z,60241.81
2022-08-30T20:03:40.890Z,60241.81
2022-08-30T20:06:08.935Z,60241.81
2022-08-30T20:08:37.563Z,60241.81
2022-08-30T20:11:05.239Z,60241.81
2022-08-30T20:13:34.406Z,60241.81
2022-08-30T20:16:01.697Z,60241.81
2022-08-30T20:18:29.419Z,60241.81
2022-08-30T20:20:57.517Z,60241.81
2022-08-30T20:23:25.244Z,60241.81
2022-08-30T20:25:54.846Z,60241.81
2022-08-30T20:28:24.975Z,60241.81
2022-08-30T20:30:53.381Z,60241.81
2022-08-30T20:33:23.749Z,60241.81
2022-08-30T20:35:52.445Z,60241.81
2022-08-30T20:38:21.570Z,60241.81
2022-08-30T20:40:51.532Z,60241.81
2022-08-30T20:43:23.344Z,60241.81
2022-08-30T20:45:50.763Z,60241.81
2022-08-30T20:48:18.924Z,60241.81
2022-08-30T20:50:46.100Z,60241.81
2022-08-30T20:53:13.617Z,60241.81
2022-08-30T20:55:42.743Z,60241.81
2022-08-30T20:58:10.174Z,60241.81
2022-08-30T21:00:37.700Z,60241.81
2022-08-30T21:03:08.357Z,60241.81
2022-08-30T21:05:53.845Z,60241.81
2022-08-30T21:08:21.440Z,60241.81
2022-08-30T21:10:48.470Z,60241.81
2022-08-30T21:13:15.964Z,60241.81
2022-08-30T21:15:46.387Z,60241.81
2022-08-30T21:18:14.438Z,60241.81
2022-08-30T21:20:42.041Z,60241.81
2022-08-30T21:23:13.297Z,60241.81
2022-08-30T21:25:43.801Z,60241.81
2022-08-30T21:28:13.210Z,60241.81
2022-08-30T21:30:40.686Z,60241.81
2022-08-30T21:33:08.360Z,60241.81
2022-08-30T21:35:56.125Z,60241.81
2022-08-30T21:38:23.593Z,60241.81
2022-08-30T21:40:50.869Z,60241.81
2022-08-30T21:43:18.385Z,60241.81
2022-08-30T21:45:46.271Z,60241.81
2022-08-30T21:48:14.430Z,60241.81
2022-08-30T21:50:44.480Z,60241.81
2022-08-30T21:53:15.414Z,60241.81
2022-08-30T21:55:45.349Z,60241.81
2022-08-30T21:58:17.497Z,60241.81
2022-08-30T22:00:45.046Z,60241.81
2022-08-30T22:03:13.323Z,60241.81
2022-08-30T22:05:41.290Z,60241.81
2022-08-30T22:08:09.529Z,60241.81
2022-08-30T22:10:37.652Z,60241.81
2022-08-30T22:13:05.265Z,60241.81
2022-08-30T22:15:32.744Z,60241.81
2022-08-30T22:18:00.800Z,60241.81
2022-08-30T22:20:30.334Z,60241.81
2022-08-30T22:22:58.698Z,60241.81
2022-08-30T22:25:25.783Z,60241.81
2022-08-30T22:27:53.047Z,60241.81
2022-08-30T22:30:20.472Z,60241.81
2022-08-30T22:32:47.912Z,60241.81
2022-08-30T22:35:15.887Z,60241.81
2022-08-30T22:37:46.779Z,60241.81
2022-08-30T22:40:19.760Z,60241.81
2022-08-30T22:42:48.404Z,60241.81
2022-08-30T22:45:15.858Z,60241.81
2022-08-30T22:47:43.258Z,60241.81
2022-08-30T22:50:13.648Z,60241.81
2022-08-30T22:52:41.265Z,60241.81
2022-08-30T22:55:09.237Z,60241.81
2022-08-30T22:57:38.654Z,60241.81
2022-08-30T23:00:15.167Z,60241.81
2022-08-30T23:02:48.735Z,60241.81
2022-08-30T23:05:17.383Z,60241.81
2022-08-30T23:07:44.440Z,60241.81
2022-08-30T23:10:13.267Z,60241.81
2022-08-30T23:12:40.695Z,60241.81
2022-08-30T23:15:12.317Z,60241.81
2022-08-30T23:17:40.001Z,60241.81
2022-08-30T23:20:08.425Z,60241.81
2022-08-30T23:22:36.032Z,60241.81
2022-08-30T23:25:22.067Z,60241.81
2022-08-30T23:28:11.610Z,60241.81
2022-08-30T23:31:03.940Z,60241.81
2022-08-30T23:33:49.731Z,60241.81
2022-08-30T23:36:35.645Z,60241.81
2022-08-30T23:39:21.946Z,60241.81
2022-08-30T23:42:08.050Z,60241.81
2022-08-30T23:44:53.703Z,60241.81
2022-08-30T23:47:40.718Z,60241.81
2022-08-30T23:50:27.325Z,60241.81
2022-08-30T23:53:15.079Z,60241.81
2022-08-30T23:56:00.792Z,60241.81
2022-08-30T23:58:47.020Z,60241.81
